Time;durP1;ratioP1;P1;durP2;ratioP2;P2;SDS_P1;SDS_P2;PMS_P1;PMS_P2;Temp;Humidity;BMP_temperature;BMP_pressure;BME280_temperature;BME280_humidity;BME280_pressure;Samples;Min_cycle;Max_cycle;Signal;HPM_P1;HPM_P2
2022/06/10 00:01:03;;;;;;;0.10;0.10;;;;;;;21.37;49.61;101709.56;5141361;27;20046;-33
2022/06/10 00:03:29;;;;;;;0.10;0.10;;;;;;;21.36;49.54;101707.91;5121172;27;20434;-32
2022/06/10 00:05:57;;;;;;;0.10;0.10;;;;;;;21.36;49.62;101714.28;5139300;27;20397;-33
2022/06/10 00:08:24;;;;;;;;;;;;;;;21.36;49.61;101707.91;5119612;27;20541;-32
2022/06/10 00:10:50;;;;;;;0.10;0.10;;;;;;;21.36;49.54;101708.75;5141348;27;19954;-33
2022/06/10 00:13:18;;;;;;;0.10;0.10;;;;;;;21.37;49.64;101709.56;5139124;27;20131;-32
2022/06/10 00:15:44;;;;;;;0.10;0.10;;;;;;;21.37;49.47;101709.56;5141529;27;20575;-32
2022/06/10 00:18:10;;;;;;;0.10;0.10;;;;;;;21.35;49.58;101704.31;5118126;27;20138;-32
2022/06/10 00:20:39;;;;;;;0.10;0.10;;;;;;;21.37;49.46;101715.13;5142279;27;20050;-34
2022/06/10 00:23:05;;;;;;;0.10;0.10;;;;;;;21.35;49.54;101712.63;5105616;27;20440;-33
2022/06/10 00:25:31;;;;;;;0.10;0.10;;;;;;;21.36;49.67;101710.69;5137572;27;20700;-32
2022/06/10 00:27:57;;;;;;;0.10;0.10;;;;;;;21.36;49.59;101703.22;5138944;27;20042;-33
2022/06/10 00:30:25;;;;;;;0.10;0.10;;;;;;;21.35;49.55;101707.09;5119633;27;20081;-32
2022/06/10 00:32:51;;;;;;;0.10;0.10;;;;;;;21.36;49.61;101707.91;5118520;27;20103;-34
2022/06/10 00:35:17;;;;;;;0.17;0.17;;;;;;;21.35;49.70;101712.63;5119598;27;20047;-33
2022/06/10 00:37:43;;;;;;;0.10;0.10;;;;;;;21.36;49.78;101707.91;5121550;27;20081;-32
2022/06/10 00:40:15;;;;;;;0.10;0.10;;;;;;;21.35;49.43;101706.28;5121804;27;20042;-32
2022/06/10 00:42:46;;;;;;;0.10;0.10;;;;;;;21.35;49.63;101706.28;5123773;27;20051;-32
2022/06/10 00:45:52;;;;;;;0.10;0.10;;;;;;;21.35;49.56;101703.50;5140944;27;20043;-33
2022/06/10 00:48:27;;;;;;;0.10;0.10;;;;;;;21.36;49.66;101719.00;5119268;27;20062;-33
2022/06/10 00:50:53;;;;;;;0.10;0.10;;;;;;;21.34;49.59;101708.22;5104006;28;20046;-32
2022/06/10 00:53:21;;;;;;;0.10;0.10;;;;;;;21.34;49.53;101713.75;5141647;27;20089;-32
2022/06/10 00:55:49;;;;;;;0.10;0.10;;;;;;;21.34;49.51;101704.63;5100118;27;20415;-32
2022/06/10 00:58:24;;;;;;;0.10;0.10;;;;;;;21.35;49.54;101706.28;5138121;27;20077;-34
2022/06/10 01:00:50;;;;;;;0.10;0.10;;;;;;;21.34;49.45;101708.22;5122009;27;20146;-32
2022/06/10 01:03:16;;;;;;;0.10;0.10;;;;;;;21.33;49.55;101712.09;5118166;27;20138;-32
2022/06/10 01:05:42;;;;;;;0.13;0.13;;;;;;;21.34;49.60;101716.53;5101316;27;20046;-32
2022/06/10 01:08:11;;;;;;;0.10;0.10;;;;;;;21.33;49.69;101703.78;5134652;27;20390;-32
2022/06/10 01:11:02;;;;;;;0.10;0.10;;;;;;;21.33;49.50;101706.56;5141537;27;20075;-33
2022/06/10 01:13:38;;;;;;;0.10;0.10;;;;;;;21.34;49.57;101710.16;5136862;27;20074;-33
2022/06/10 01:19:17;;;;;;;0.10;0.10;;;;;;;21.33;49.55;101705.69;5171467;27;20107;-33
2022/06/10 01:22:22;;;;;;;0.10;0.10;;;;;;;21.33;49.52;101697.38;5155236;27;20131;-34
2022/06/10 01:25:12;;;;;;;0.10;0.10;;;;;;;21.32;49.62;101701.28;5128411;27;20085;-34
2022/06/10 01:27:51;;;;;;;0.10;0.10;;;;;;;21.30;49.55;101705.13;5149753;27;20078;-32
2022/06/10 01:30:56;;;;;;;0.10;0.10;;;;;;;21.32;49.46;101699.31;5144375;27;20077;-34
2022/06/10 01:33:47;;;;;;;0.10;0.10;;;;;;;21.33;49.50;101703.78;5133393;27;20043;-33
2022/06/10 01:36:50;;;;;;;0.10;0.10;;;;;;;21.32;49.48;101704.88;5135849;27;20524;-34
2022/06/10 01:39:24;;;;;;;0.10;0.10;;;;;;;21.32;49.57;101715.13;5132291;27;20472;-32
2022/06/10 01:42:12;;;;;;;0.10;0.10;;;;;;;21.33;49.43;101714.00;5121581;27;20174;-32
2022/06/10 01:44:48;;;;;;;0.10;0.10;;;;;;;21.33;49.63;101708.47;5118317;27;20919;-33
2022/06/10 01:47:36;;;;;;;0.10;0.10;;;;;;;21.32;49.53;101713.19;5133597;27;20510;-33
2022/06/10 01:50:04;;;;;;;;;;;;;;;21.32;49.58;101712.34;5120071;27;20095;-32
2022/06/10 01:52:38;;;;;;;0.10;0.10;;;;;;;21.31;49.45;101714.25;5135645;27;19975;-32
2022/06/10 01:55:11;;;;;;;0.10;0.10;;;;;;;21.30;49.60;101710.66;5135058;27;20073;-32
2022/06/10 01:57:43;;;;;;;0.10;0.10;;;;;;;21.30;49.64;101709.84;5133052;27;20043;-32
2022/06/10 02:00:13;;;;;;;0.10;0.10;;;;;;;21.31;49.60;101714.25;5133626;27;20561;-32
2022/06/10 02:02:43;;;;;;;0.10;0.10;;;;;;;21.32;49.53;101720.66;5132432;27;20075;-34
2022/06/10 02:05:14;;;;;;;0.10;0.10;;;;;;;21.31;49.67;101717.03;5134128;27;20061;-32
2022/06/10 02:07:45;;;;;;;0.10;0.10;;;;;;;21.30;49.65;101727.28;5114723;27;20070;-34
2022/06/10 02:10:16;;;;;;;0.10;0.10;;;;;;;21.29;49.45;101717.31;5133919;27;20522;-34
2022/06/10 02:12:47;;;;;;;0.10;0.10;;;;;;;21.30;49.59;101716.22;5134481;27;20118;-32
2022/06/10 02:15:19;;;;;;;0.10;0.10;;;;;;;21.30;49.76;101721.75;5133124;27;20067;-32
2022/06/10 02:17:50;;;;;;;0.10;0.10;;;;;;;21.31;49.60;101725.34;5096559;27;20134;-32
2022/06/10 02:20:30;;;;;;;0.10;0.10;;;;;;;21.31;49.61;101733.66;5132004;27;20051;-32
2022/06/10 02:22:58;;;;;;;0.17;0.17;;;;;;;21.30;49.66;101732.00;5132095;27;20066;-32
2022/06/10 02:25:30;;;;;;;0.10;0.10;;;;;;;21.29;49.64;101733.94;5135266;27;20066;-32
2022/06/10 02:27:59;;;;;;;0.10;0.10;;;;;;;21.29;49.52;101731.19;5134638;27;20138;-32
2022/06/10 02:30:30;;;;;;;0.10;0.10;;;;;;;21.29;49.63;101733.94;5104314;28;20131;-33
2022/06/10 02:32:57;;;;;;;0.10;0.10;;;;;;;21.29;49.62;101739.47;5098894;28;20044;-33
2022/06/10 02:35:26;;;;;;;0.10;0.10;;;;;;;21.29;49.55;101736.72;5093833;28;20074;-34
2022/06/10 02:38:03;;;;;;;0.10;0.10;;;;;;;21.30;49.35;101745.84;5098292;28;20134;-34
2022/06/10 02:40:33;;;;;;;0.10;0.10;;;;;;;21.28;49.45;101736.97;5115255;28;20044;-34
2022/06/10 02:43:10;;;;;;;0.10;0.10;;;;;;;21.28;49.40;101735.03;5119228;28;20043;-34
2022/06/10 02:45:57;;;;;;;0.15;0.15;;;;;;;21.29;49.60;101733.13;5120143;28;20120;-34
2022/06/10 02:48:33;;;;;;;0.13;0.13;;;;;;;21.29;49.58;101742.25;5102147;28;20062;-32
2022/06/10 02:51:00;;;;;;;0.15;0.15;;;;;;;21.29;49.67;101746.97;5100134;28;20105;-32
2022/06/10 02:53:25;;;;;;;0.10;0.10;;;;;;;21.28;49.65;101737.81;5118261;28;20181;-32
2022/06/10 02:55:51;;;;;;;0.10;0.10;;;;;;;21.28;49.56;101743.34;5119743;28;20089;-32
2022/06/10 03:01:32;;;;;;;0.10;0.10;;;;;;;21.27;49.59;101741.69;5103939;28;20607;-32
2022/06/10 03:04:37;;;;;;;0.10;0.10;;;;;;;21.28;49.61;101745.28;5104962;28;20127;-32
2022/06/10 03:07:12;;;;;;;0.10;0.10;;;;;;;21.27;49.54;101741.69;5090659;28;20047;-32
2022/06/10 03:09:50;;;;;;;0.10;0.10;;;;;;;21.29;49.53;101746.97;5101117;28;20126;-33
2022/06/10 03:12:38;;;;;;;0.10;0.10;;;;;;;21.28;49.45;101753.59;5098715;28;20486;-32
2022/06/10 03:15:19;;;;;;;0.10;0.10;;;;;;;21.27;49.55;101749.16;5095076;28;20090;-32
2022/06/10 03:18:14;;;;;;;0.10;0.10;;;;;;;21.28;49.48;101753.59;5117039;28;20135;-32
2022/06/10 03:21:02;;;;;;;0.10;0.10;;;;;;;21.26;49.53;101756.66;5088730;28;20461;-32
2022/06/10 03:23:59;;;;;;;0.10;0.10;;;;;;;21.26;49.62;101751.09;5120533;28;20050;-33
2022/06/10 03:26:42;;;;;;;0.10;0.10;;;;;;;21.27;49.61;101757.47;5102810;28;20457;-32
2022/06/10 03:29:15;;;;;;;0.10;0.10;;;;;;;21.26;49.56;101762.19;5118222;27;20074;-33
2022/06/10 03:31:44;;;;;;;0.10;0.10;;;;;;;21.26;49.55;101758.59;5102194;28;20070;-32
2022/06/10 03:34:17;;;;;;;0.10;0.10;;;;;;;21.25;49.52;101766.06;5118304;28;20470;-32
2022/06/10 03:36:44;;;;;;;0.10;0.10;;;;;;;21.26;49.58;101767.72;5099669;28;20137;-33
2022/06/10 03:39:10;;;;;;;0.10;0.10;;;;;;;21.26;49.61;101764.13;5100523;28;20067;-32
2022/06/10 03:41:41;;;;;;;0.10;0.10;;;;;;;21.25;49.63;101763.31;5117156;28;20383;-33
2022/06/10 03:44:16;;;;;;;0.15;0.15;;;;;;;21.26;49.58;101773.28;5100778;28;20074;-32
2022/06/10 03:46:47;;;;;;;0.10;0.10;;;;;;;21.26;49.58;101772.44;5119903;28;20082;-32
2022/06/10 03:49:14;;;;;;;0.10;0.10;;;;;;;21.26;49.24;101769.66;5102725;28;20508;-32
2022/06/10 03:51:40;;;;;;;0.10;0.10;;;;;;;21.26;49.45;101781.59;5117399;28;20075;-32
2022/06/10 03:54:06;;;;;;;0.10;0.10;;;;;;;21.26;49.60;101784.34;5120911;28;20369;-32
2022/06/10 03:56:35;;;;;;;0.10;0.10;;;;;;;21.26;49.58;101789.06;5100393;28;20047;-32
2022/06/10 03:59:01;;;;;;;0.10;0.10;;;;;;;21.25;49.65;101781.88;5116361;27;20137;-33
2022/06/10 04:01:26;;;;;;;0.10;0.10;;;;;;;21.25;49.54;101793.78;5099514;28;20436;-32
2022/06/10 04:03:52;;;;;;;0.10;0.10;;;;;;;21.26;49.45;101791.84;5101692;28;20047;-32
2022/06/10 04:06:18;;;;;;;0.10;0.10;;;;;;;21.25;49.67;101788.25;5116674;28;20491;-33
2022/06/10 04:09:04;;;;;;;0.10;0.10;;;;;;;21.25;49.59;101792.94;5104725;28;20043;-32
2022/06/10 04:11:32;;;;;;;0.13;0.13;;;;;;;21.24;49.59;101788.50;5098295;28;20444;-32
2022/06/10 04:13:57;;;;;;;0.10;0.10;;;;;;;21.23;49.68;101789.59;5104571;28;20040;-32
2022/06/10 04:16:23;;;;;;;0.10;0.10;;;;;;;21.23;49.65;101795.16;5118305;28;20046;-34
2022/06/10 04:18:49;;;;;;;0.10;0.10;;;;;;;21.24;49.42;101799.56;5116928;28;20046;-32
2022/06/10 04:21:14;;;;;;;0.10;0.10;;;;;;;21.24;49.46;101794.91;5119627;28;20104;-32
2022/06/10 04:23:40;;;;;;;0.10;0.10;;;;;;;21.25;49.42;101801.25;5116329;28;20039;-33
2022/06/10 04:26:06;;;;;;;0.10;0.10;;;;;;;21.23;49.50;101801.50;5116149;28;20039;-32
2022/06/10 04:28:31;;;;;;;0.10;0.10;;;;;;;21.24;49.64;101805.97;5118534;28;20047;-32
2022/06/10 04:30:57;;;;;;;0.10;0.10;;;;;;;21.24;49.56;101802.34;5118216;27;20482;-32
2022/06/10 04:33:23;;;;;;;0.10;0.10;;;;;;;21.23;49.47;101809.81;5118499;28;20055;-33
2022/06/10 04:35:50;;;;;;;0.10;0.10;;;;;;;21.24;49.65;101805.13;5099076;28;20882;-33
2022/06/10 04:38:18;;;;;;;0.10;0.10;;;;;;;21.23;49.51;101798.75;5115708;28;20130;-32
2022/06/10 04:40:44;;;;;;;;;;;;;;;21.24;49.55;101799.56;5097339;28;20083;-34
2022/06/10 04:43:10;;;;;;;0.10;0.10;;;;;;;21.22;49.85;101808.16;5120209;28;19994;-34
2022/06/10 04:45:41;;;;;;;0.10;0.10;;;;;;;21.23;49.48;101814.53;5115991;28;20070;-32
2022/06/10 04:48:07;;;;;;;0.10;0.10;;;;;;;21.23;49.67;101809.81;5087643;28;20074;-33
2022/06/10 04:50:34;;;;;;;0.10;0.10;;;;;;;21.22;49.57;101805.41;5115999;28;20061;-33
2022/06/10 04:52:59;;;;;;;0.10;0.10;;;;;;;21.23;49.67;101806.22;5116602;27;20047;-34
2022/06/10 04:55:27;;;;;;;0.10;0.10;;;;;;;21.22;49.46;101810.94;5116256;28;20039;-32
2022/06/10 04:57:54;;;;;;;0.10;0.10;;;;;;;21.23;49.66;101811.75;5114656;28;20543;-32
2022/06/10 05:00:24;;;;;;;0.10;0.10;;;;;;;21.22;49.46;101808.16;5120774;28;20323;-32
2022/06/10 05:02:50;;;;;;;0.10;0.10;;;;;;;21.22;49.53;101810.09;5098609;28;20085;-33
2022/06/10 05:05:16;;;;;;;0.10;0.10;;;;;;;21.23;49.56;101809.81;5115341;28;20047;-32
2022/06/10 05:07:42;;;;;;;0.10;0.10;;;;;;;21.22;49.46;101816.47;5115638;28;20876;-32
2022/06/10 05:10:09;;;;;;;0.10;0.10;;;;;;;21.21;49.43;101814.81;5118409;28;20043;-33
2022/06/10 05:12:35;;;;;;;0.20;0.20;;;;;;;21.22;49.51;101810.09;5097955;28;20119;-35
2022/06/10 05:15:01;;;;;;;0.10;0.10;;;;;;;21.22;49.50;101812.88;5113429;28;20050;-32
2022/06/10 05:17:26;;;;;;;0.10;0.10;;;;;;;21.21;49.42;101814.00;5113830;28;20127;-33
2022/06/10 05:19:52;;;;;;;0.10;0.10;;;;;;;21.22;49.51;101808.16;5119745;28;20043;-31
2022/06/10 05:22:22;;;;;;;0.10;0.10;;;;;;;21.21;49.44;101809.28;5112442;28;20604;-32
2022/06/10 05:24:48;;;;;;;0.10;0.10;;;;;;;21.20;49.50;101810.41;5110874;28;20131;-32
2022/06/10 05:27:13;;;;;;;0.10;0.10;;;;;;;21.22;49.77;101812.88;5090735;28;20074;-34
2022/06/10 05:29:39;;;;;;;0.20;0.20;;;;;;;21.12;50.16;101812.88;5105824;27;20051;-46
2022/06/10 05:32:05;;;;;;;0.20;0.20;;;;;;;20.93;50.92;101810.56;5108092;28;20051;-40
2022/06/10 05:34:46;;;;;;;0.10;0.10;;;;;;;21.10;50.70;101812.28;5113706;28;20069;-41
2022/06/10 05:37:14;;;;;;;0.10;0.10;;;;;;;21.22;50.41;101812.88;5110416;28;20035;-44
2022/06/10 05:39:40;;;;;;;0.10;0.10;;;;;;;21.23;50.30;101809.81;5084636;28;20130;-41
2022/06/10 05:42:06;;;;;;;0.10;0.10;;;;;;;21.12;50.49;101810.94;5111025;28;20774;-45
2022/06/10 05:44:35;;;;;;;0.10;0.10;;;;;;;21.09;50.72;101814.22;5108858;28;20071;-35
2022/06/10 05:47:01;;;;;;;0.10;0.10;;;;;;;21.23;50.48;101817.31;5091583;28;20207;-35
2022/06/10 05:49:28;;;;;;;0.10;0.10;;;;;;;21.28;50.57;101812.59;5113811;27;20432;-36
2022/06/10 05:51:54;;;;;;;0.10;0.10;;;;;;;21.30;49.95;101823.44;5086873;28;20139;-36
2022/06/10 05:54:20;;;;;;;0.10;0.10;;;;;;;21.32;50.16;101821.25;5089427;28;20055;-35
2022/06/10 05:56:45;;;;;;;0.10;0.10;;;;;;;21.34;50.17;101829.28;5108614;27;20043;-35
2022/06/10 05:59:12;;;;;;;0.10;0.10;;;;;;;21.34;49.92;101826.53;5109455;28;20058;-35
2022/06/10 06:01:37;;;;;;;0.10;0.10;;;;;;;21.35;49.90;101830.94;5082351;28;20132;-35
2022/06/10 06:04:03;;;;;;;0.10;0.10;;;;;;;21.35;49.67;101826.25;5108699;27;20550;-36
2022/06/10 06:06:29;;;;;;;0.10;0.10;;;;;;;21.36;49.73;101835.38;5112050;28;20047;-35
2022/06/10 06:08:55;;;;;;;0.10;0.10;;;;;;;21.38;49.80;101838.72;5119599;28;20044;-35
2022/06/10 06:11:20;;;;;;;0.10;0.10;;;;;;;21.39;49.58;101837.63;5115960;28;20048;-35
2022/06/10 06:13:46;;;;;;;0.10;0.10;;;;;;;21.39;49.55;101843.16;5115272;28;20065;-35
2022/06/10 06:16:14;;;;;;;0.10;0.10;;;;;;;21.39;49.53;101843.97;5119648;28;20077;-35
2022/06/10 06:18:40;;;;;;;0.10;0.10;;;;;;;21.40;49.55;101842.88;5100681;28;20052;-36
2022/06/10 06:21:06;;;;;;;0.10;0.10;;;;;;;21.41;49.65;101844.53;5095572;28;20074;-34
2022/06/10 06:23:32;;;;;;;0.10;0.10;;;;;;;21.42;49.48;101842.63;5104749;28;21098;-34
2022/06/10 06:25:58;;;;;;;0.20;0.20;;;;;;;21.42;49.33;101837.91;5116046;28;20039;-35
2022/06/10 06:28:23;;;;;;;0.10;0.10;;;;;;;21.44;49.26;101837.63;5106069;28;20074;-35
2022/06/10 06:30:49;;;;;;;0.10;0.10;;;;;;;21.44;49.35;101846.75;5095724;28;20043;-35
2022/06/10 06:33:15;;;;;;;0.10;0.10;;;;;;;21.44;49.45;101844.00;5115530;27;20122;-36
2022/06/10 06:35:46;;;;;;;0.10;0.10;;;;;;;21.46;49.40;101852.00;5116948;28;20054;-34
2022/06/10 06:38:12;;;;;;;0.10;0.10;;;;;;;21.47;49.32;101854.53;5107711;28;20142;-34
2022/06/10 06:40:37;;;;;;;0.10;0.10;;;;;;;21.48;49.39;101855.38;5107940;28;20126;-34
2022/06/10 06:43:03;;;;;;;0.10;0.10;;;;;;;21.48;49.31;101849.81;5115353;28;20039;-35
2022/06/10 06:45:30;;;;;;;0.10;0.10;;;;;;;21.49;49.20;101849.53;5112546;28;20062;-35
2022/06/10 06:48:03;;;;;;;0.10;0.10;;;;;;;21.50;49.14;101853.13;5109061;28;20051;-36
2022/06/10 06:50:30;;;;;;;0.10;0.10;;;;;;;21.51;49.12;101857.59;5102953;28;20070;-35
2022/06/10 06:52:56;;;;;;;0.10;0.10;;;;;;;21.51;49.17;101854.81;5096820;28;20047;-35
2022/06/10 06:55:31;;;;;;;0.10;0.10;;;;;;;21.51;49.17;101863.97;5093882;28;20043;-35
2022/06/10 06:57:57;;;;;;;0.10;0.10;;;;;;;21.52;49.01;101868.41;5107782;28;20055;-35
2022/06/10 07:00:23;;;;;;;0.10;0.10;;;;;;;21.52;49.17;101864.78;5090381;28;20066;-35
2022/06/10 07:02:48;;;;;;;0.10;0.10;;;;;;;21.51;49.10;101861.19;5088961;28;20043;-36
2022/06/10 07:05:14;;;;;;;0.10;0.10;;;;;;;21.52;49.18;101864.78;5105709;28;20091;-37
2022/06/10 07:07:41;;;;;;;0.10;0.10;;;;;;;21.53;49.01;101861.75;5108978;28;20093;-36
2022/06/10 07:10:07;;;;;;;0.10;0.10;;;;;;;21.54;48.97;101865.34;5108642;27;20159;-36
2022/06/10 07:12:33;;;;;;;0.10;0.10;;;;;;;21.52;49.01;101867.56;5113826;27;20126;-37
2022/06/10 07:14:59;;;;;;;0.10;0.10;;;;;;;21.53;48.92;101870.06;5111281;27;20057;-37
2022/06/10 07:17:25;;;;;;;0.10;0.10;;;;;;;21.52;49.00;101865.63;5108090;28;20050;-34
2022/06/10 07:19:52;;;;;;;0.10;0.10;;;;;;;21.54;48.96;101870.88;5092328;28;20160;-35
2022/06/10 07:22:18;;;;;;;0.10;0.10;;;;;;;21.52;49.05;101871.16;5111614;28;20070;-36
2022/06/10 07:24:43;;;;;;;0.10;0.10;;;;;;;21.52;49.02;101865.63;5090946;28;20560;-37
2022/06/10 07:27:10;;;;;;;0.10;0.10;;;;;;;21.52;49.06;101881.44;5114802;28;20051;-35
2022/06/10 07:29:36;;;;;;;0.10;0.10;;;;;;;21.52;49.07;101875.88;5111973;27;20471;-34
2022/06/10 07:32:02;;;;;;;0.10;0.10;;;;;;;21.52;49.08;101873.94;5112634;27;20489;-36
2022/06/10 07:34:27;;;;;;;0.10;0.10;;;;;;;21.51;48.95;101880.59;5114446;27;20047;-34
2022/06/10 07:36:53;;;;;;;0.10;0.10;;;;;;;21.52;49.03;101884.19;5113965;28;20047;-34
2022/06/10 07:39:19;;;;;;;0.10;0.10;;;;;;;21.51;48.92;101882.53;5115031;28;20046;-35
2022/06/10 07:42:15;;;;;;;0.10;0.10;;;;;;;21.52;49.01;101889.75;5114965;27;20046;-34
2022/06/10 07:44:36;;;;;;;0.10;0.10;;;;;;;21.51;48.94;101885.31;5095006;28;20563;-35
2022/06/10 07:47:07;;;;;;;0.10;0.10;;;;;;;21.34;49.59;101891.09;5089304;28;20119;-35
2022/06/10 07:49:32;;;;;;;0.10;0.10;;;;;;;21.46;49.23;101890.81;5074769;28;20075;-37
2022/06/10 07:51:58;;;;;;;0.10;0.10;;;;;;;21.50;49.00;101890.03;5094423;27;20050;-36
2022/06/10 07:54:24;;;;;;;0.10;0.10;;;;;;;21.50;49.13;101886.41;5107472;27;20108;-35
2022/06/10 07:56:50;;;;;;;0.20;0.20;;;;;;;21.52;48.95;101881.44;5113152;28;20573;-35
2022/06/10 07:59:16;;;;;;;0.10;0.10;;;;;;;21.52;48.95;101884.19;5090526;28;20143;-35
2022/06/10 08:01:42;;;;;;;0.10;0.10;;;;;;;21.54;48.93;101881.97;5111705;28;20039;-35
2022/06/10 08:04:08;;;;;;;0.20;0.20;;;;;;;21.52;48.91;101882.25;5113045;27;20333;-35
2022/06/10 08:06:38;;;;;;;0.10;0.10;;;;;;;21.54;49.08;101882.81;5113734;28;20088;-34
2022/06/10 08:09:03;;;;;;;0.10;0.10;;;;;;;21.54;48.88;101885.59;5079072;28;20174;-34
2022/06/10 08:11:29;;;;;;;0.10;0.10;;;;;;;21.54;48.93;101876.44;5108601;28;20044;-34
2022/06/10 08:13:55;;;;;;;0.10;0.10;;;;;;;21.56;48.86;101887.25;5075718;28;20051;-34
2022/06/10 08:16:21;;;;;;;0.10;0.10;;;;;;;21.55;48.91;101880.88;5109951;28;20183;-36
2022/06/10 08:18:47;;;;;;;0.10;0.10;;;;;;;21.57;49.00;101894.47;5102567;28;20147;-35
2022/06/10 08:24:01;;;;;;;0.10;0.10;;;;;;;21.57;48.78;101892.50;5099692;28;20047;-36
2022/06/10 08:26:27;;;;;;;0.10;0.10;;;;;;;21.59;48.84;101895.00;5111615;27;20462;-35
2022/06/10 08:28:54;;;;;;;0.10;0.10;;;;;;;21.60;48.79;101889.22;5108271;28;20096;-36
2022/06/10 08:31:21;;;;;;;0.10;0.10;;;;;;;21.60;48.88;101894.75;5091192;28;20863;-35
2022/06/10 08:33:47;;;;;;;0.10;0.10;;;;;;;21.61;48.75;101898.34;5113246;28;20382;-35
2022/06/10 08:36:13;;;;;;;0.10;0.10;;;;;;;21.61;48.79;101893.63;5094019;28;20050;-35
2022/06/10 08:38:42;;;;;;;0.10;0.10;;;;;;;21.63;48.71;101896.13;5087258;28;20464;-35
2022/06/10 08:41:26;;;;;;;0.10;0.10;;;;;;;21.62;48.69;101906.38;5083403;28;20035;-35
2022/06/10 08:43:59;;;;;;;0.10;0.10;;;;;;;21.63;48.77;101908.06;5110622;28;20511;-35
2022/06/10 08:47:05;;;;;;;0.10;0.10;;;;;;;21.65;48.68;101907.78;5106766;28;20347;-34
2022/06/10 08:50:11;;;;;;;0.10;0.10;;;;;;;21.64;48.76;101906.13;5081141;28;20051;-35
2022/06/10 08:53:01;;;;;;;0.10;0.10;;;;;;;21.66;48.68;101909.44;5081971;28;20090;-35
2022/06/10 08:55:52;;;;;;;0.10;0.10;;;;;;;21.64;48.63;101901.41;5099374;28;20067;-35
2022/06/10 08:58:22;;;;;;;0.10;0.10;;;;;;;21.65;48.70;101896.69;5075429;28;20456;-34
2022/06/10 09:00:59;;;;;;;0.10;0.10;;;;;;;21.65;48.60;101902.25;5108324;28;20426;-35
2022/06/10 09:03:50;;;;;;;0.10;0.10;;;;;;;21.65;48.56;101893.94;5085194;28;20438;-35
2022/06/10 09:06:22;;;;;;;0.10;0.10;;;;;;;21.65;48.64;101903.06;5093952;28;20071;-35
2022/06/10 09:08:49;;;;;;;0.10;0.10;;;;;;;21.66;48.62;101887.28;5090614;28;20164;-36
2022/06/10 09:11:40;;;;;;;0.10;0.10;;;;;;;21.65;48.47;101886.44;5092068;28;20138;-35
2022/06/10 09:14:16;;;;;;;0.10;0.10;;;;;;;21.66;48.48;101898.34;5094910;28;20177;-37
2022/06/10 09:16:51;;;;;;;0.10;0.10;;;;;;;21.65;48.56;101897.53;5069549;28;20082;-34
2022/06/10 09:22:30;;;;;;;0.10;0.10;;;;;;;21.65;48.50;101889.22;5165428;27;20632;-34
2022/06/10 09:25:04;;;;;;;0.10;0.10;;;;;;;21.65;48.32;101888.38;5130666;27;20162;-34
2022/06/10 09:27:34;;;;;;;0.10;0.10;;;;;;;21.64;48.54;101884.78;5127625;27;20119;-34
2022/06/10 09:30:03;;;;;;;0.10;0.10;;;;;;;21.64;48.58;101887.56;5156204;27;20396;-33
2022/06/10 09:33:09;;;;;;;0.10;0.10;;;;;;;21.64;48.55;101895.03;5124753;27;20070;-34
2022/06/10 09:35:58;;;;;;;0.10;0.10;;;;;;;21.63;48.53;101891.44;5125045;27;20088;-32
2022/06/10 09:38:37;;;;;;;0.10;0.10;;;;;;;21.63;48.56;101894.22;5122769;27;20058;-33
2022/06/10 09:41:29;;;;;;;0.10;0.10;;;;;;;21.62;48.51;101895.28;5137783;27;20093;-33
2022/06/10 09:44:02;;;;;;;0.10;0.10;;;;;;;21.61;48.63;101896.41;5115579;27;20500;-32
2022/06/10 09:46:39;;;;;;;0.10;0.10;;;;;;;21.62;48.52;101892.53;5131530;27;20466;-33
2022/06/10 09:49:29;;;;;;;0.10;0.10;;;;;;;21.62;48.65;101886.97;5109820;27;20058;-33
2022/06/10 09:52:17;;;;;;;0.10;0.10;;;;;;;21.62;48.68;101886.16;5115692;27;20547;-32
2022/06/10 09:55:12;;;;;;;0.10;0.10;;;;;;;21.63;48.50;101873.94;5118174;27;20360;-32
2022/06/10 09:57:53;;;;;;;0.10;0.10;;;;;;;21.60;48.58;101872.56;5114474;27;20159;-32
2022/06/10 10:00:21;;;;;;;0.10;0.10;;;;;;;21.61;48.51;101870.63;5111760;27;20102;-33
2022/06/10 10:03:04;;;;;;;0.10;0.10;;;;;;;21.61;48.65;101863.16;5129535;27;20074;-32
2022/06/10 10:05:58;;;;;;;0.10;0.10;;;;;;;21.60;48.63;101864.25;5131265;27;20100;-33
2022/06/10 10:08:47;;;;;;;0.10;0.10;;;;;;;21.60;48.68;101871.75;5109827;27;20067;-33
2022/06/10 10:11:30;;;;;;;0.10;0.10;;;;;;;21.60;48.66;101866.19;5111538;27;20142;-32
2022/06/10 10:14:06;;;;;;;0.10;0.10;;;;;;;21.60;48.77;101857.88;5129697;27;20375;-32
2022/06/10 10:16:48;;;;;;;0.10;0.10;;;;;;;21.60;48.53;101857.88;5106583;27;20422;-33
2022/06/10 10:19:54;;;;;;;0.10;0.10;;;;;;;21.59;48.60;101850.66;5127481;27;20043;-36
2022/06/10 10:22:44;;;;;;;0.20;0.20;;;;;;;21.59;48.69;101857.06;5112928;27;20462;-36
2022/06/10 10:25:16;;;;;;;0.10;0.10;;;;;;;21.56;48.75;101849.28;5111603;27;20469;-35
2022/06/10 10:27:44;;;;;;;0.10;0.10;;;;;;;21.56;48.72;101846.50;5108975;27;20427;-35
2022/06/10 10:30:21;;;;;;;0.10;0.10;;;;;;;21.57;48.57;101847.34;5133637;27;20146;-36
2022/06/10 10:32:53;;;;;;;0.10;0.10;;;;;;;21.56;48.59;101842.91;5101704;28;20074;-35
2022/06/10 10:35:23;;;;;;;0.10;0.10;;;;;;;21.58;48.76;101849.81;5117642;28;20131;-35
2022/06/10 10:37:53;;;;;;;0.10;0.10;;;;;;;21.56;48.67;101845.69;5112458;28;20057;-35
2022/06/10 10:40:21;;;;;;;0.10;0.10;;;;;;;21.56;48.70;101845.69;5111320;28;20159;-36
2022/06/10 10:42:48;;;;;;;0.10;0.10;;;;;;;21.56;48.62;101852.06;5093508;28;20071;-35
2022/06/10 10:45:26;;;;;;;0.47;0.20;;;;;;;21.55;48.56;101842.09;5111353;28;20047;-36
2022/06/10 10:47:54;;;;;;;;;;;;;;;21.55;48.68;101850.41;5086887;28;20082;-35
2022/06/10 10:50:27;;;;;;;0.10;0.10;;;;;;;21.54;48.62;101844.03;5110429;28;19981;-35
2022/06/10 10:52:58;;;;;;;0.10;0.10;;;;;;;21.54;48.58;101841.25;5094521;28;20043;-34
2022/06/10 10:55:31;;;;;;;0.10;0.10;;;;;;;21.52;48.76;101842.63;5112534;28;20067;-36
2022/06/10 10:58:08;;;;;;;0.10;0.10;;;;;;;21.54;48.72;101840.41;5113013;28;20075;-34
2022/06/10 11:00:43;;;;;;;0.10;0.10;;;;;;;21.53;48.84;101844.28;5120198;28;20126;-35
2022/06/10 11:03:28;;;;;;;0.10;0.10;;;;;;;21.52;48.73;101839.84;5094042;28;20131;-36
2022/06/10 11:05:57;;;;;;;0.10;0.10;;;;;;;21.52;48.83;101840.69;5099268;28;20053;-36
2022/06/10 11:08:30;;;;;;;0.10;0.10;;;;;;;21.52;48.75;101834.31;5101163;28;20051;-36
2022/06/10 11:11:22;;;;;;;0.10;0.10;;;;;;;21.52;48.76;101840.69;5097849;28;20054;-35
2022/06/10 11:13:56;;;;;;;0.10;0.10;;;;;;;21.51;48.84;101840.97;5103139;28;20077;-36
2022/06/10 11:19:11;;;;;;;0.10;0.10;;;;;;;21.50;48.79;101834.59;5153560;27;20209;-35
2022/06/10 11:24:45;;;;;;;0.10;0.10;;;;;;;21.51;48.76;101836.25;5157641;27;20532;-32
2022/06/10 11:29:58;;;;;;;0.10;0.10;;;;;;;21.51;48.78;101832.66;5156440;27;20197;-34
2022/06/10 11:32:27;;;;;;;0.10;0.10;;;;;;;21.51;48.73;101829.88;5152000;27;20165;-34
2022/06/10 11:35:02;;;;;;;0.10;0.10;;;;;;;21.50;48.84;101831.81;5152790;27;20090;-36
2022/06/10 11:37:34;;;;;;;0.10;0.10;;;;;;;21.50;48.71;101828.19;5114875;27;20130;-34
2022/06/10 11:40:12;;;;;;;0.10;0.10;;;;;;;21.50;48.92;101825.41;5152565;27;20070;-34
2022/06/10 11:42:43;;;;;;;0.10;0.10;;;;;;;21.49;48.82;101830.13;5116482;27;20579;-34
2022/06/10 11:45:18;;;;;;;0.10;0.10;;;;;;;21.49;48.86;101827.38;5123081;27;20210;-35
2022/06/10 11:47:51;;;;;;;0.10;0.10;;;;;;;21.51;48.84;101829.88;5120975;27;21430;-34
2022/06/10 11:50:30;;;;;;;0.10;0.10;;;;;;;21.49;48.91;101821.00;5124863;27;20137;-34
2022/06/10 11:53:02;;;;;;;0.10;0.10;;;;;;;21.49;48.89;101810.72;5125704;27;20104;-34
2022/06/10 11:55:33;;;;;;;0.10;0.10;;;;;;;21.49;48.93;101815.44;5128536;27;20058;-34
2022/06/10 12:00:55;;;;;;;0.10;0.10;;;;;;;21.48;48.77;101809.06;5131145;27;20094;-33
2022/06/10 12:03:29;;;;;;;0.10;0.10;;;;;;;21.48;48.84;101809.06;5104428;27;20158;-34
2022/06/10 12:06:01;;;;;;;0.10;0.10;;;;;;;21.48;48.85;101800.75;5133404;27;20057;-33
2022/06/10 12:08:50;;;;;;;0.10;0.10;;;;;;;21.48;48.92;101795.22;5130357;27;20137;-33
2022/06/10 12:16:45;;;;;;;0.10;0.10;;;;;;;21.47;49.18;101796.34;5170007;27;20204;-37
2022/06/10 12:19:16;;;;;;;0.10;0.10;;;;;;;21.45;49.30;101798.53;5136097;27;20145;-34